createdAt,value
2016-08-11T00:00:50.113Z,16.35
2016-08-11T00:01:49.425Z,16.38
2016-08-11T00:02:50.167Z,16.33
2016-08-11T00:03:49.472Z,16.36
2016-08-11T00:04:49.496Z,16.41
2016-08-11T00:05:50.231Z,16.39
2016-08-11T00:06:49.541Z,16.41
2016-08-11T00:07:49.563Z,16.39
2016-08-11T00:08:49.587Z,16.47
2016-08-11T00:09:49.608Z,16.36
2016-08-11T00:10:49.628Z,16.42
2016-08-11T00:11:50.396Z,16.46
2016-08-11T00:12:50.395Z,16.41
2016-08-11T00:13:49.700Z,16.47
2016-08-11T00:14:50.436Z,16.42
2016-08-11T00:15:49.750Z,16.53
2016-08-11T00:16:49.773Z,16.46
2016-08-11T00:17:49.801Z,16.39
2016-08-11T00:18:50.528Z,16.36
2016-08-11T00:19:49.863Z,16.36
2016-08-11T00:20:49.863Z,16.39
2016-08-11T00:21:49.888Z,16.42
2016-08-11T00:22:49.908Z,16.38
2016-08-11T00:23:49.934Z,16.32
2016-08-11T00:24:49.956Z,16.33
2016-08-11T00:25:49.984Z,16.39
2016-08-11T00:26:50.004Z,16.39
2016-08-11T00:27:50.023Z,16.38
2016-08-11T00:28:50.060Z,16.41
2016-08-11T00:29:50.071Z,16.38
2016-08-11T00:30:50.101Z,16.43
2016-08-11T00:31:50.829Z,16.39
2016-08-11T00:32:50.848Z,16.33
2016-08-11T00:33:50.169Z,16.46
2016-08-11T00:34:50.909Z,16.33
2016-08-11T00:35:50.921Z,16.33
2016-08-11T00:36:50.234Z,16.29
2016-08-11T00:37:50.252Z,16.35
2016-08-11T00:38:50.279Z,16.32
2016-08-11T00:39:50.305Z,16.31
2016-08-11T00:40:50.324Z,16.41
2016-08-11T00:41:50.352Z,16.38
2016-08-11T00:42:50.392Z,16.42
2016-08-11T00:43:50.402Z,16.39
2016-08-11T00:44:50.426Z,16.38
2016-08-11T00:45:50.444Z,16.39
2016-08-11T00:46:50.468Z,16.43
2016-08-11T00:47:50.486Z,16.38
2016-08-11T00:48:51.223Z,16.38
2016-08-11T00:49:50.584Z,16.39
2016-08-11T00:50:51.272Z,16.43
2016-08-11T00:51:50.579Z,16.41
2016-08-11T00:52:50.604Z,16.47
2016-08-11T00:53:50.627Z,16.36
2016-08-11T00:54:50.650Z,16.39
2016-08-11T00:55:51.380Z,16.35
2016-08-11T00:56:50.695Z,16.35
2016-08-11T00:57:50.718Z,16.43
2016-08-11T00:58:50.745Z,16.38
2016-08-11T00:59:50.778Z,16.39
2016-08-11T01:00:51.504Z,16.42
2016-08-11T01:01:50.813Z,16.47
2016-08-11T01:02:52.263Z,16.42
2016-08-11T01:03:50.870Z,16.41
2016-08-11T01:04:50.886Z,16.41
2016-08-11T01:05:51.623Z,16.41
2016-08-11T01:06:52.349Z,16.39
2016-08-11T01:07:50.951Z,16.39
2016-08-11T01:08:50.971Z,16.41
2016-08-11T01:09:50.999Z,16.38
2016-08-11T01:10:51.024Z,16.36
2016-08-11T01:11:51.049Z,16.35
2016-08-11T01:12:51.068Z,16.39
2016-08-11T01:13:51.105Z,16.33
2016-08-11T01:14:51.119Z,16.29
2016-08-11T01:15:51.134Z,16.33
2016-08-11T01:16:51.161Z,16.31
2016-08-11T01:17:51.183Z,16.35
2016-08-11T01:18:51.204Z,16.31
2016-08-11T01:19:51.229Z,16.33
2016-08-11T01:20:51.254Z,16.21
2016-08-11T01:21:51.279Z,16.28
2016-08-11T01:22:51.296Z,16.31
2016-08-11T01:23:51.345Z,16.31
2016-08-11T01:24:51.345Z,16.29
2016-08-11T01:25:51.370Z,16.33
2016-08-11T01:26:51.387Z,16.28
2016-08-11T01:27:51.418Z,16.29
2016-08-11T01:28:52.857Z,16.21
2016-08-11T01:29:52.200Z,16.24
2016-08-11T01:30:51.493Z,16.23
2016-08-11T01:31:51.506Z,16.23
2016-08-11T01:32:51.527Z,16.16
2016-08-11T01:33:51.553Z,16.21
2016-08-11T01:34:51.577Z,16.21
2016-08-11T01:35:52.309Z,16.26
2016-08-11T01:36:51.620Z,16.28
2016-08-11T01:37:51.642Z,16.2
2016-08-11T01:38:51.670Z,16.2
2016-08-11T01:39:51.719Z,16.23
2016-08-11T01:40:51.713Z,16.24
2016-08-11T01:41:51.735Z,16.26
2016-08-11T01:42:51.762Z,16.21
2016-08-11T01:43:52.491Z,16.21
2016-08-11T01:44:51.820Z,16.17
2016-08-11T01:45:51.831Z,16.26
2016-08-11T01:46:52.565Z,16.23
2016-08-11T01:47:51.879Z,16.2
2016-08-11T01:48:51.898Z,16.24
2016-08-11T01:49:51.969Z,16.23
2016-08-11T01:50:51.942Z,16.26
2016-08-11T01:51:51.969Z,16.23
2016-08-11T01:52:51.989Z,16.2
2016-08-11T01:53:52.010Z,16.23
2016-08-11T01:54:52.059Z,16.15
2016-08-11T01:55:52.058Z,16.08
2016-08-11T01:56:52.800Z,16.08
2016-08-11T01:57:52.111Z,16.05
2016-08-11T01:58:52.127Z,16.15
2016-08-11T01:59:52.148Z,16.05
2016-08-11T02:00:52.204Z,15.92
2016-08-11T02:01:52.206Z,16.01
2016-08-11T02:02:52.216Z,15.98
2016-08-11T02:03:52.967Z,15.97
2016-08-11T02:04:52.267Z,15.97
2016-08-11T02:05:52.287Z,15.92
2016-08-11T02:06:52.307Z,15.97
2016-08-11T02:07:52.332Z,15.95
2016-08-11T02:08:52.360Z,15.95
2016-08-11T02:09:52.382Z,15.94
2016-08-11T02:10:52.399Z,15.98
2016-08-11T02:11:53.131Z,15.95
2016-08-11T02:12:52.445Z,15.97
2016-08-11T02:13:52.470Z,15.95
2016-08-11T02:14:52.492Z,15.95
2016-08-11T02:15:52.538Z,16
2016-08-11T02:16:52.547Z,15.95
2016-08-11T02:17:52.563Z,15.95
2016-08-11T02:18:52.588Z,15.92
2016-08-11T02:19:53.317Z,15.88
2016-08-11T02:20:52.627Z,15.91
2016-08-11T02:21:52.661Z,15.76
2016-08-11T02:22:52.675Z,15.83
2016-08-11T02:23:53.414Z,15.86
2016-08-11T02:24:52.718Z,15.91
2016-08-11T02:25:53.453Z,15.97
2016-08-11T02:26:52.764Z,15.86
2016-08-11T02:27:52.790Z,15.91
2016-08-11T02:28:52.811Z,15.84
2016-08-11T02:29:53.541Z,15.86
2016-08-11T02:30:52.857Z,15.88
2016-08-11T02:31:52.878Z,15.88
2016-08-11T02:32:52.923Z,15.9
2016-08-11T02:33:52.932Z,15.86
2016-08-11T02:34:52.949Z,15.82
2016-08-11T02:35:52.969Z,15.83
2016-08-11T02:36:52.992Z,15.76
2016-08-11T02:37:53.017Z,15.83
2016-08-11T02:38:53.038Z,15.79
2016-08-11T02:39:54.488Z,15.88
2016-08-11T02:40:53.801Z,15.79
2016-08-11T02:41:53.105Z,15.84
2016-08-11T02:42:53.849Z,15.82
2016-08-11T02:43:53.153Z,15.86
2016-08-11T02:44:53.886Z,15.84
2016-08-11T02:45:53.199Z,15.79
2016-08-11T02:46:53.226Z,15.77
2016-08-11T02:47:53.259Z,15.88
2016-08-11T02:48:53.273Z,15.82
2016-08-11T02:49:53.345Z,15.88
2016-08-11T02:50:53.315Z,15.88
2016-08-11T02:51:53.342Z,15.82
2016-08-11T02:52:53.361Z,15.9
2016-08-11T02:53:53.380Z,15.77
2016-08-11T02:54:53.416Z,15.91
2016-08-11T02:55:53.424Z,15.88
2016-08-11T02:56:53.449Z,15.91
2016-08-11T02:57:53.474Z,15.83
2016-08-11T02:59:53.515Z,15.9
2016-08-11T03:00:53.538Z,15.88
2016-08-11T03:01:53.567Z,15.82
2016-08-11T03:02:53.585Z,15.9
2016-08-11T03:03:53.608Z,15.84
2016-08-11T03:04:53.648Z,15.75
2016-08-11T03:05:53.662Z,15.86
2016-08-11T03:06:53.677Z,15.83
2016-08-11T03:07:54.417Z,15.86
2016-08-11T03:08:53.717Z,15.97
2016-08-11T03:09:53.753Z,15.84
2016-08-11T03:10:53.770Z,15.95
2016-08-11T03:11:55.207Z,15.97
2016-08-11T03:12:54.534Z,15.91
2016-08-11T03:14:54.567Z,15.95
2016-08-11T03:16:08.770Z,15.92
2016-08-11T03:16:53.901Z,15.86
2016-08-11T03:17:54.644Z,15.86
2016-08-11T03:18:53.948Z,15.88
2016-08-11T03:19:53.989Z,15.91
2016-08-11T03:20:54.000Z,15.88
2016-08-11T03:21:54.020Z,15.9
2016-08-11T03:22:54.037Z,15.9
2016-08-11T03:23:54.059Z,15.91
2016-08-11T03:24:54.084Z,15.88
2016-08-11T03:25:54.844Z,16
2016-08-11T03:26:54.858Z,15.94
2016-08-11T03:27:54.148Z,15.86
2016-08-11T03:29:54.199Z,15.86
2016-08-11T03:30:54.222Z,15.88
2016-08-11T03:31:54.243Z,15.83
2016-08-11T03:32:54.978Z,15.91
2016-08-11T03:33:55.703Z,15.9
2016-08-11T03:34:54.308Z,15.92
2016-08-11T03:35:54.332Z,15.84
2016-08-11T03:36:54.354Z,15.83
2016-08-11T03:37:54.376Z,15.83
2016-08-11T03:38:54.400Z,15.92
2016-08-11T03:39:54.420Z,15.83
2016-08-11T03:40:54.466Z,15.83
2016-08-11T03:41:54.477Z,15.77
2016-08-11T03:42:54.500Z,15.91
2016-08-11T03:44:55.255Z,15.88
2016-08-11T03:45:54.558Z,15.91
2016-08-11T03:46:55.292Z,15.83
2016-08-11T03:47:54.601Z,15.73
2016-08-11T03:48:54.632Z,15.82
2016-08-11T03:49:54.650Z,15.73
2016-08-11T03:50:54.673Z,15.84
2016-08-11T03:51:55.403Z,15.73
2016-08-11T03:52:54.716Z,15.86
2016-08-11T03:53:54.740Z,15.88
2016-08-11T03:54:54.764Z,15.84
2016-08-11T03:55:54.786Z,15.88
2016-08-11T03:56:54.808Z,15.83
2016-08-11T03:57:55.561Z,15.82
2016-08-11T03:59:54.870Z,15.88
2016-08-11T04:00:54.898Z,15.84
2016-08-11T04:01:54.920Z,15.8
2016-08-11T04:02:55.672Z,15.84
2016-08-11T04:03:55.682Z,15.8
2016-08-11T04:04:54.990Z,15.77
2016-08-11T04:05:55.012Z,15.82
2016-08-11T04:06:55.046Z,15.82
2016-08-11T04:07:55.055Z,15.76
2016-08-11T04:08:55.080Z,15.73
2016-08-11T04:09:55.101Z,15.75
2016-08-11T04:10:56.542Z,15.73
2016-08-11T04:11:55.857Z,15.83
2016-08-11T04:12:55.170Z,15.73
2016-08-11T04:14:55.213Z,15.73
2016-08-11T04:15:55.236Z,15.73
2016-08-11T04:16:55.257Z,15.76
2016-08-11T04:17:55.988Z,15.76
2016-08-11T04:18:55.301Z,15.8
2016-08-11T04:19:55.361Z,15.76
2016-08-11T04:20:55.352Z,15.72
2016-08-11T04:21:55.375Z,15.75
2016-08-11T04:22:55.392Z,15.76
2016-08-11T04:23:55.423Z,15.79
2016-08-11T04:24:56.159Z,15.67
2016-08-11T04:25:55.459Z,15.75
2016-08-11T04:26:55.483Z,15.75
2016-08-11T04:27:55.506Z,15.67
2016-08-11T04:29:55.547Z,15.75
2016-08-11T04:30:55.574Z,15.72
2016-08-11T04:31:55.601Z,15.77
2016-08-11T04:32:55.626Z,15.7
2016-08-11T04:33:56.346Z,15.73
2016-08-11T04:34:55.678Z,15.72
2016-08-11T04:35:56.399Z,15.7
2016-08-11T04:36:55.707Z,15.76
2016-08-11T04:37:55.736Z,15.73
2016-08-11T04:38:56.467Z,15.68
2016-08-11T04:39:55.788Z,15.75
2016-08-11T04:40:55.795Z,15.76
2016-08-11T04:41:55.820Z,15.79
2016-08-11T04:42:55.843Z,15.8
2016-08-11T04:44:55.885Z,15.67
2016-08-11T04:45:55.910Z,15.7
2016-08-11T04:46:55.934Z,15.83
2016-08-11T04:47:55.952Z,15.68
2016-08-11T04:48:55.976Z,15.7
2016-08-11T04:49:56.050Z,15.62
2016-08-11T04:50:56.730Z,15.65
2016-08-11T04:51:56.064Z,15.73
2016-08-11T04:52:56.075Z,15.68
2016-08-11T04:53:56.088Z,15.75
2016-08-11T04:54:56.106Z,15.73
2016-08-11T04:55:56.132Z,15.7
2016-08-11T04:56:56.156Z,15.7
2016-08-11T04:57:56.180Z,15.67
2016-08-11T04:59:56.223Z,15.64
2016-08-11T05:00:56.243Z,15.64
2016-08-11T05:01:56.994Z,15.65
2016-08-11T05:02:56.287Z,15.65
2016-08-11T05:03:56.314Z,15.64
2016-08-11T05:04:56.336Z,15.75
2016-08-11T05:05:56.370Z,15.64
2016-08-11T05:06:56.378Z,15.52
2016-08-11T05:07:56.416Z,15.46
2016-08-11T05:08:56.425Z,15.55
2016-08-11T05:09:57.156Z,15.46
2016-08-11T05:10:56.468Z,15.37
2016-08-11T05:11:56.491Z,15.4
2016-08-11T05:12:56.510Z,15.57
2016-08-11T05:14:56.569Z,15.54
2016-08-11T05:15:56.584Z,15.52
2016-08-11T05:16:56.611Z,15.44
2016-08-11T05:17:56.631Z,15.52
2016-08-11T05:18:57.361Z,15.52
2016-08-11T05:19:56.671Z,15.58
2016-08-11T05:20:57.409Z,15.51
2016-08-11T05:21:56.715Z,15.42
2016-08-11T05:22:56.736Z,15.44
2016-08-11T05:23:56.760Z,15.49
2016-08-11T05:24:56.781Z,15.51
2016-08-11T05:25:56.809Z,15.55
2016-08-11T05:26:56.828Z,15.55
2016-08-11T05:27:56.850Z,15.62
2016-08-11T05:28:56.909Z,15.57
2016-08-11T05:29:56.905Z,15.52
2016-08-11T05:30:56.930Z,15.58
2016-08-11T05:31:56.936Z,15.59
2016-08-11T05:32:56.958Z,15.55
2016-08-11T05:33:56.983Z,15.55
2016-08-11T05:34:57.005Z,15.55
2016-08-11T05:35:57.027Z,15.57
2016-08-11T05:36:57.049Z,15.58
2016-08-11T05:37:57.074Z,15.57
2016-08-11T05:38:57.107Z,15.54
2016-08-11T05:39:57.131Z,15.54
2016-08-11T05:40:57.138Z,15.57
2016-08-11T05:41:57.161Z,15.58
2016-08-11T05:42:57.182Z,15.55
2016-08-11T05:43:57.207Z,15.7
2016-08-11T05:44:57.233Z,15.65
2016-08-11T05:45:57.250Z,15.7
2016-08-11T05:46:57.289Z,15.7
2016-08-11T05:47:57.297Z,15.64
2016-08-11T05:48:58.025Z,15.75
2016-08-11T05:50:57.363Z,15.61
2016-08-11T05:51:57.393Z,15.65
2016-08-11T05:52:57.408Z,15.73
2016-08-11T05:53:57.437Z,15.7
2016-08-11T05:54:57.452Z,15.68
2016-08-11T05:55:57.477Z,15.79
2016-08-11T05:56:57.499Z,15.76
2016-08-11T05:57:57.519Z,15.83
2016-08-11T05:58:57.545Z,15.92
2016-08-11T05:59:57.562Z,15.92
2016-08-11T06:00:57.588Z,15.94
2016-08-11T06:01:57.635Z,15.97
2016-08-11T06:02:57.635Z,15.97
2016-08-11T06:03:57.654Z,15.98
2016-08-11T06:04:57.677Z,15.97
2016-08-11T06:05:57.698Z,16
2016-08-11T06:06:57.723Z,16.05
2016-08-11T06:07:58.487Z,16.01
2016-08-11T06:08:58.482Z,16.09
2016-08-11T06:09:57.798Z,16.08
2016-08-11T06:10:57.814Z,16.09
2016-08-11T06:11:57.836Z,16.04
2016-08-11T06:12:57.863Z,16.08
2016-08-11T06:13:57.882Z,16.17
2016-08-11T06:14:57.902Z,16.09
2016-08-11T06:15:57.937Z,16.2
2016-08-11T06:16:57.950Z,16.2
2016-08-11T06:17:57.969Z,16.24
2016-08-11T06:18:57.995Z,16.28
2016-08-11T06:19:58.016Z,16.26
2016-08-11T06:20:58.044Z,16.23
2016-08-11T06:21:58.061Z,16.23
2016-08-11T06:22:58.087Z,16.28
2016-08-11T06:23:58.833Z,16.31
2016-08-11T06:24:58.142Z,16.31
2016-08-11T06:25:58.153Z,16.28
2016-08-11T06:26:58.177Z,16.36
2016-08-11T06:27:58.907Z,16.41
2016-08-11T06:28:58.229Z,16.43
2016-08-11T06:29:58.250Z,16.42
2016-08-11T06:30:58.984Z,16.42
2016-08-11T06:31:58.290Z,16.41
2016-08-11T06:32:58.314Z,16.64
2016-08-11T06:33:58.335Z,16.61
2016-08-11T06:34:58.358Z,16.68
2016-08-11T06:35:58.380Z,16.69
2016-08-11T06:36:58.403Z,16.66
2016-08-11T06:37:59.139Z,16.64
2016-08-11T06:38:59.161Z,16.75
2016-08-11T06:39:58.490Z,16.78
2016-08-11T06:40:58.504Z,16.74
2016-08-11T06:41:58.519Z,16.74
2016-08-11T06:42:58.543Z,16.71
2016-08-11T06:43:59.277Z,16.75
2016-08-11T06:44:58.587Z,16.76
2016-08-11T06:45:58.613Z,16.76
2016-08-11T06:46:58.635Z,16.79
2016-08-11T06:47:59.368Z,16.84
2016-08-11T06:48:58.685Z,16.72
2016-08-11T06:49:58.710Z,16.72
2016-08-11T06:51:00.386Z,16.75
2016-08-11T06:51:58.751Z,16.69
2016-08-11T06:52:59.499Z,16.79
2016-08-11T06:53:59.512Z,16.66
2016-08-11T06:54:58.834Z,16.72
2016-08-11T06:55:59.557Z,16.75
2016-08-11T06:56:58.870Z,16.79
2016-08-11T06:57:58.893Z,16.75
2016-08-11T06:58:59.624Z,16.9
2016-08-11T06:59:58.937Z,16.79
2016-08-11T07:00:59.689Z,16.83
2016-08-11T07:01:58.987Z,16.79
2016-08-11T07:02:59.009Z,16.76
2016-08-11T07:03:59.034Z,16.89
2016-08-11T07:04:59.057Z,16.87
2016-08-11T07:05:59.086Z,17.01
2016-08-11T07:06:59.824Z,16.93
2016-08-11T07:07:59.128Z,16.97
2016-08-11T07:08:59.859Z,17.05
2016-08-11T07:09:59.174Z,17.04
2016-08-11T07:10:59.207Z,17.04
2016-08-11T07:11:59.219Z,17.06
2016-08-11T07:12:59.241Z,17.05
2016-08-11T07:13:59.979Z,17.04
2016-08-11T07:14:59.289Z,17.05
2016-08-11T07:15:59.314Z,17.01
2016-08-11T07:16:59.339Z,17.08
2016-08-11T07:18:00.074Z,17.22
2016-08-11T07:19:00.808Z,17.22
2016-08-11T07:19:59.412Z,17.2
2016-08-11T07:21:00.150Z,17.34
2016-08-11T07:21:59.454Z,17.33
2016-08-11T07:22:59.479Z,17.39
2016-08-11T07:23:59.508Z,17.46
2016-08-11T07:25:00.258Z,17.52
2016-08-11T07:25:59.548Z,17.78
2016-08-11T07:26:59.576Z,17.7
2016-08-11T07:27:59.599Z,17.72
2016-08-11T07:28:59.620Z,17.79
2016-08-11T07:29:59.643Z,17.87
2016-08-11T07:30:59.671Z,17.9
2016-08-11T07:32:01.116Z,17.87
2016-08-11T07:32:59.714Z,17.98
2016-08-11T07:33:59.738Z,18.01
2016-08-11T07:35:00.483Z,18.04
2016-08-11T07:36:00.513Z,18.15
2016-08-11T07:36:59.810Z,18.15
2016-08-11T07:37:59.853Z,18.16
2016-08-11T07:39:00.573Z,18.2
2016-08-11T07:39:59.885Z,18.04
2016-08-11T07:40:59.918Z,18.05
2016-08-11T07:41:59.940Z,18.07
2016-08-11T07:42:59.957Z,18.1
2016-08-11T07:43:59.981Z,18.18
2016-08-11T07:45:00.716Z,18.22
2016-08-11T07:46:00.033Z,18.31
2016-08-11T07:47:00.056Z,18.23
2016-08-11T07:48:00.790Z,18.25
2016-08-11T07:49:00.815Z,18.25
2016-08-11T07:50:00.147Z,18.34
2016-08-11T07:51:00.862Z,18.23
2016-08-11T07:52:00.335Z,18.33
2016-08-11T07:53:00.206Z,18.18
2016-08-11T07:54:00.226Z,18.28
2016-08-11T07:55:00.254Z,18.26
2016-08-11T07:56:00.309Z,18.29
2016-08-11T07:57:00.301Z,18.26
2016-08-11T07:58:00.332Z,18.23
2016-08-11T07:59:00.371Z,18.29
2016-08-11T08:00:00.430Z,18.25
2016-08-11T08:01:00.398Z,18.23
2016-08-11T08:02:00.424Z,18.18
2016-08-11T08:03:00.448Z,18.13
2016-08-11T08:04:00.472Z,18.16
2016-08-11T08:05:00.493Z,18.1
2016-08-11T08:06:00.518Z,18.01
2016-08-11T08:07:00.548Z,17.97
2016-08-11T08:08:00.570Z,17.89
2016-08-11T08:09:00.593Z,17.89
2016-08-11T08:10:00.615Z,17.85
2016-08-11T08:11:00.640Z,17.83
2016-08-11T08:12:01.374Z,17.79
2016-08-11T08:13:00.699Z,17.7
2016-08-11T08:14:02.130Z,17.65
2016-08-11T08:15:00.738Z,17.63
2016-08-11T08:16:00.757Z,17.7
2016-08-11T08:17:00.788Z,17.56
2016-08-11T08:18:01.520Z,17.6
2016-08-11T08:19:00.845Z,17.67
2016-08-11T08:20:00.856Z,17.76
2016-08-11T08:21:00.879Z,17.8
2016-08-11T08:22:00.928Z,18.03
2016-08-11T08:23:00.933Z,18.08
2016-08-11T08:24:00.953Z,18.18
2016-08-11T08:25:00.974Z,18.29
2016-08-11T08:26:01.002Z,18.26
2016-08-11T08:27:01.735Z,18.37
2016-08-11T08:28:01.783Z,18.37
2016-08-11T08:29:01.074Z,18.43
2016-08-11T08:30:01.808Z,18.43
2016-08-11T08:31:01.121Z,18.35
2016-08-11T08:32:01.149Z,18.26
2016-08-11T08:33:01.175Z,18.29
2016-08-11T08:34:01.193Z,18.31
2016-08-11T08:35:01.224Z,18.34
2016-08-11T08:36:01.248Z,18.44
2016-08-11T08:37:01.266Z,18.37
2016-08-11T08:38:01.302Z,18.45
2016-08-11T08:39:02.027Z,18.41
2016-08-11T08:40:01.342Z,18.33
2016-08-11T08:41:01.367Z,18.52
2016-08-11T08:42:01.395Z,18.34
2016-08-11T08:43:01.420Z,18.34
2016-08-11T08:44:01.444Z,18.4
2016-08-11T08:45:01.466Z,18.26
2016-08-11T08:46:01.488Z,18.22
2016-08-11T08:47:02.222Z,18.23
2016-08-11T08:48:01.534Z,18.23
2016-08-11T08:49:01.560Z,18.13
2016-08-11T08:50:01.584Z,18.01
2016-08-11T08:51:01.620Z,18.05
2016-08-11T08:52:01.639Z,18.07
2016-08-11T08:53:02.368Z,18.11
2016-08-11T08:54:01.682Z,18.16
2016-08-11T08:55:01.704Z,18.34
2016-08-11T08:56:01.736Z,18.34
2016-08-11T08:57:01.754Z,18.4
2016-08-11T08:58:01.780Z,18.44
2016-08-11T08:59:01.804Z,18.6
2016-08-11T09:00:01.852Z,18.68
2016-08-11T09:01:01.861Z,18.75
2016-08-11T09:02:01.875Z,18.78
2016-08-11T09:03:01.907Z,18.75
2016-08-11T09:04:01.927Z,18.77
2016-08-11T09:05:01.950Z,18.96
2016-08-11T09:06:01.974Z,19
2016-08-11T09:07:02.004Z,19.08
2016-08-11T09:08:02.026Z,19.12
2016-08-11T09:09:02.049Z,19.07
2016-08-11T09:10:02.077Z,19.16
2016-08-11T09:11:02.099Z,19.07
2016-08-11T09:12:02.127Z,19.11
2016-08-11T09:13:02.861Z,19.16
2016-08-11T09:14:02.881Z,19.15
2016-08-11T09:15:02.214Z,19.11
2016-08-11T09:16:02.236Z,19.12
2016-08-11T09:17:02.249Z,19.15
2016-08-11T09:18:02.981Z,19.12
2016-08-11T09:19:02.298Z,19.14
2016-08-11T09:20:02.322Z,19.07
2016-08-11T09:21:02.354Z,19.08
2016-08-11T09:22:02.372Z,18.99
2016-08-11T09:23:02.398Z,18.95
2016-08-11T09:24:02.443Z,18.93
2016-08-11T09:25:02.454Z,18.95
2016-08-11T09:26:02.474Z,18.9
2016-08-11T09:27:02.496Z,18.95
2016-08-11T09:28:02.522Z,18.98
2016-08-11T09:29:02.550Z,19
2016-08-11T09:30:02.575Z,19.02
2016-08-11T09:31:02.595Z,19.08
2016-08-11T09:32:03.335Z,19.04
2016-08-11T09:33:02.666Z,19.15
2016-08-11T09:34:02.671Z,19.27
2016-08-11T09:35:02.697Z,19.36
2016-08-11T09:36:02.722Z,19.39
2016-08-11T09:37:02.750Z,19.55
2016-08-11T09:38:02.775Z,19.55
2016-08-11T09:39:02.798Z,19.64
2016-08-11T09:40:02.823Z,19.66
2016-08-11T09:41:02.848Z,19.66
2016-08-11T09:42:03.585Z,19.64
2016-08-11T09:43:02.900Z,19.63
2016-08-11T09:44:03.632Z,19.55
2016-08-11T09:45:02.951Z,19.69
2016-08-11T09:46:02.994Z,19.59
2016-08-11T09:47:02.998Z,19.62
2016-08-11T09:48:03.044Z,19.56
2016-08-11T09:49:03.062Z,19.69
2016-08-11T09:50:03.074Z,19.64
2016-08-11T09:51:03.100Z,19.66
2016-08-11T09:52:03.127Z,19.74
2016-08-11T09:53:03.151Z,19.73
2016-08-11T09:54:03.886Z,19.77
2016-08-11T09:55:03.216Z,19.76
2016-08-11T09:56:03.953Z,19.81
2016-08-11T09:57:03.266Z,19.74
2016-08-11T09:58:03.281Z,19.62
2016-08-11T09:59:03.313Z,19.62
2016-08-11T10:00:04.039Z,19.66
2016-08-11T10:01:04.073Z,19.51
2016-08-11T10:02:03.381Z,19.63
2016-08-11T10:03:03.407Z,19.64
2016-08-11T10:04:03.445Z,19.54
2016-08-11T10:05:03.461Z,19.56
2016-08-11T10:06:03.479Z,19.49
2016-08-11T10:07:03.507Z,19.56
2016-08-11T10:08:03.531Z,19.55
2016-08-11T10:09:04.266Z,19.52
2016-08-11T10:10:03.582Z,19.56
2016-08-11T10:11:03.608Z,19.54
2016-08-11T10:12:03.635Z,19.67
2016-08-11T10:13:03.658Z,19.67
2016-08-11T10:14:03.683Z,19.82
2016-08-11T10:15:03.711Z,19.86
2016-08-11T10:16:03.740Z,19.89
2016-08-11T10:17:04.474Z,20.06
2016-08-11T10:18:03.800Z,20.14
2016-08-11T10:19:03.811Z,20.13
2016-08-11T10:20:03.838Z,20.34
2016-08-11T10:21:03.871Z,20.21
2016-08-11T10:22:03.889Z,20.37
2016-08-11T10:23:03.915Z,20.4
2016-08-11T10:24:03.943Z,20.55
2016-08-11T10:25:03.966Z,20.63
2016-08-11T10:26:04.014Z,20.82
2016-08-11T10:27:04.025Z,20.77
2016-08-11T10:28:04.048Z,20.8
2016-08-11T10:29:04.071Z,20.95
2016-08-11T10:30:04.096Z,21.05
2016-08-11T10:31:04.124Z,21
2016-08-11T10:32:04.149Z,21.15
2016-08-11T10:33:04.895Z,21.15
2016-08-11T10:34:04.915Z,21.33
2016-08-11T10:35:04.249Z,21.37
2016-08-11T10:36:04.974Z,21.36
2016-08-11T10:37:04.285Z,21.48
2016-08-11T10:38:04.317Z,21.39
2016-08-11T10:39:04.334Z,21.43
2016-08-11T10:40:04.363Z,21.54
2016-08-11T10:41:04.388Z,21.61
2016-08-11T10:42:04.415Z,21.62
2016-08-11T10:43:04.459Z,21.64
2016-08-11T10:44:04.471Z,21.69
2016-08-11T10:45:04.498Z,21.67
2016-08-11T10:46:04.541Z,21.76
2016-08-11T10:47:04.545Z,21.76
2016-08-11T10:48:04.577Z,21.83
2016-08-11T10:49:05.314Z,21.89
2016-08-11T10:50:04.632Z,21.79
2016-08-11T10:51:05.420Z,21.88
2016-08-11T10:52:04.705Z,21.88
2016-08-11T10:53:04.709Z,21.8
2016-08-11T10:54:04.739Z,21.73
2016-08-11T10:55:04.763Z,21.73
2016-08-11T10:56:04.789Z,21.82
2016-08-11T10:57:04.819Z,21.7
2016-08-11T10:58:04.848Z,21.67
2016-08-11T10:59:04.891Z,21.62
2016-08-11T11:00:05.610Z,21.7
2016-08-11T11:01:04.925Z,21.64
2016-08-11T11:02:04.954Z,21.61
2016-08-11T11:03:04.981Z,21.66
2016-08-11T11:04:05.009Z,21.57
2016-08-11T11:05:05.149Z,21.48
2016-08-11T11:06:05.063Z,21.57
2016-08-11T11:07:05.112Z,21.43
2016-08-11T11:08:05.119Z,21.42
2016-08-11T11:09:05.139Z,21.36
2016-08-11T11:10:05.173Z,21.39
2016-08-11T11:11:05.907Z,21.27
2016-08-11T11:12:05.222Z,21.24
2016-08-11T11:13:05.248Z,21.36
2016-08-11T11:14:05.272Z,21.42
2016-08-11T11:15:05.304Z,21.5
2016-08-11T11:16:05.337Z,21.57
2016-08-11T11:17:05.356Z,21.54
2016-08-11T11:18:05.384Z,21.55
2016-08-11T11:19:05.405Z,21.48
2016-08-11T11:20:05.437Z,21.54
2016-08-11T11:21:05.470Z,21.5
2016-08-11T11:22:05.489Z,21.45
2016-08-11T11:23:05.515Z,21.42
2016-08-11T11:24:06.256Z,21.37
2016-08-11T11:25:05.570Z,21.5
2016-08-11T11:26:05.596Z,21.54
2016-08-11T11:27:05.621Z,21.58
2016-08-11T11:28:05.649Z,21.52
2016-08-11T11:29:05.683Z,21.61
2016-08-11T11:30:05.711Z,21.76
2016-08-11T11:31:05.738Z,21.76
2016-08-11T11:32:06.466Z,21.73
2016-08-11T11:33:05.783Z,21.75
2016-08-11T11:34:06.010Z,21.73
2016-08-11T11:35:05.846Z,21.64
2016-08-11T11:36:05.863Z,21.72
2016-08-11T11:37:05.890Z,21.73
2016-08-11T11:38:06.627Z,21.72
2016-08-11T11:39:05.947Z,21.58
2016-08-11T11:40:05.989Z,21.55
2016-08-11T11:41:05.996Z,21.55
2016-08-11T11:42:06.025Z,21.51
2016-08-11T11:43:06.057Z,21.45
2016-08-11T11:44:07.384Z,21.4
2016-08-11T11:45:06.113Z,21.39
2016-08-11T11:46:06.133Z,21.39
2016-08-11T11:47:06.160Z,21.35
2016-08-11T11:48:06.205Z,21.48
2016-08-11T11:49:06.210Z,21.46
2016-08-11T11:50:06.239Z,21.4
2016-08-11T11:51:06.268Z,21.32
2016-08-11T11:52:07.739Z,21.35
2016-08-11T11:53:06.326Z,21.29
2016-08-11T11:54:06.345Z,21.32
2016-08-11T11:55:07.084Z,21.42
2016-08-11T11:56:07.121Z,21.54
2016-08-11T11:57:06.425Z,21.54
2016-08-11T11:58:06.455Z,21.52
2016-08-11T11:59:06.485Z,21.58
2016-08-11T12:01:06.536Z,21.72
2016-08-11T12:02:07.272Z,21.8
2016-08-11T12:03:07.298Z,21.76
2016-08-11T12:04:07.324Z,21.75
2016-08-11T12:05:06.647Z,21.8
2016-08-11T12:06:06.666Z,21.8
2016-08-11T12:07:06.709Z,21.69
2016-08-11T12:08:06.731Z,21.72
2016-08-11T12:09:06.747Z,21.7
2016-08-11T12:10:06.776Z,21.7
2016-08-11T12:11:06.807Z,21.66
2016-08-11T12:12:06.830Z,21.54
2016-08-11T12:13:06.858Z,21.5
2016-08-11T12:14:06.897Z,21.51
2016-08-11T12:15:06.917Z,21.43
2016-08-11T12:16:06.946Z,21.36
2016-08-11T12:17:06.959Z,21.27
2016-08-11T12:18:06.991Z,21.36
2016-08-11T12:19:07.734Z,21.33
2016-08-11T12:20:07.045Z,21.33
2016-08-11T12:21:07.787Z,21.29
2016-08-11T12:22:07.098Z,21.22
2016-08-11T12:23:07.123Z,21.18
2016-08-11T12:24:07.175Z,21.07
2016-08-11T12:25:07.182Z,21.18
2016-08-11T12:26:07.214Z,20.99
2016-08-11T12:27:07.229Z,21.02
2016-08-11T12:28:07.256Z,21.05
2016-08-11T12:29:07.290Z,21.11
2016-08-11T12:30:08.022Z,21.15
2016-08-11T12:31:07.344Z,21.17
2016-08-11T12:32:07.363Z,21.14
2016-08-11T12:33:07.394Z,21.18
2016-08-11T12:34:07.421Z,21.33
2016-08-11T12:35:07.444Z,21.36
2016-08-11T12:36:07.471Z,21.37
2016-08-11T12:37:08.915Z,21.4
2016-08-11T12:38:07.525Z,21.54
2016-08-11T12:39:07.551Z,21.6
2016-08-11T12:40:07.576Z,21.69
2016-08-11T12:41:07.615Z,21.72
2016-08-11T12:42:08.339Z,21.77
2016-08-11T12:43:08.365Z,21.75
2016-08-11T12:44:07.683Z,21.82
2016-08-11T12:45:07.718Z,21.76
2016-08-11T12:46:07.735Z,21.82
2016-08-11T12:47:08.477Z,21.93
2016-08-11T12:48:07.792Z,21.93
2016-08-11T12:49:07.829Z,21.98
2016-08-11T12:50:07.853Z,22.1
2016-08-11T12:51:07.881Z,22.17
2016-08-11T12:52:07.897Z,22.14
2016-08-11T12:53:07.930Z,22.18
2016-08-11T12:54:07.953Z,22.32
2016-08-11T12:55:07.993Z,22.32
2016-08-11T12:56:08.010Z,22.28
2016-08-11T12:57:08.047Z,22.36
2016-08-11T12:58:08.083Z,22.29
2016-08-11T12:59:08.096Z,22.17
2016-08-11T13:00:08.828Z,22.14
2016-08-11T13:01:08.150Z,22.15
2016-08-11T13:02:08.174Z,22.14
2016-08-11T13:03:08.203Z,22.14
2016-08-11T13:04:08.226Z,22.02
2016-08-11T13:05:08.263Z,21.96
2016-08-11T13:06:08.293Z,21.89
2016-08-11T13:07:08.308Z,21.92
2016-08-11T13:08:08.335Z,21.91